createdAt,value
2017-08-25T00:00:03.012Z,98301.07
2017-08-25T00:02:31.417Z,98299.13
2017-08-25T00:04:59.784Z,98301.69
2017-08-25T00:07:28.173Z,98301.63
2017-08-25T00:09:56.556Z,98299.44
2017-08-25T00:12:24.972Z,98300.84
2017-08-25T00:14:53.364Z,98299.29
2017-08-25T00:17:21.737Z,98300.20
2017-08-25T00:19:50.141Z,98302.28
2017-08-25T00:22:18.525Z,98311.19
2017-08-25T00:24:46.929Z,98308.42
2017-08-25T00:27:15.320Z,98312.16
2017-08-25T00:29:43.690Z,98313.40
2017-08-25T00:32:12.085Z,98312.19
2017-08-25T00:34:40.446Z,98309.58
2017-08-25T00:37:08.848Z,98308.33
2017-08-25T00:39:37.246Z,98312.23
2017-08-25T00:42:05.618Z,98307.91
2017-08-25T00:44:34.015Z,98305.56
2017-08-25T00:47:02.425Z,98303.08
2017-08-25T00:49:30.833Z,98308.52
2017-08-25T00:51:59.211Z,98302.01
2017-08-25T00:54:27.638Z,98299.80
2017-08-25T00:56:56.010Z,98299.58
2017-08-25T00:59:24.374Z,98303.98
2017-08-25T01:01:52.846Z,98299.11
2017-08-25T01:04:21.255Z,98296.71
2017-08-25T01:06:49.672Z,98302.11
2017-08-25T01:09:18.046Z,98303.34
2017-08-25T01:11:46.462Z,98305.55
2017-08-25T01:14:14.841Z,98312.20
2017-08-25T01:16:43.242Z,98314.36
2017-08-25T01:19:11.665Z,98306.11
2017-08-25T01:21:40.042Z,98307.83
2017-08-25T01:24:08.439Z,98306.28
2017-08-25T01:26:36.852Z,98312.62
2017-08-25T01:29:05.242Z,98311.84
2017-08-25T01:31:33.634Z,98313.15
2017-08-25T01:34:02.037Z,98315.31
2017-08-25T01:36:30.431Z,98313.19
2017-08-25T01:38:58.812Z,98314.95
2017-08-25T01:41:27.238Z,98313.23
2017-08-25T01:43:55.634Z,98316.25
2017-08-25T01:46:24.027Z,98323.14
2017-08-25T01:48:52.438Z,98320.27
2017-08-25T01:51:20.816Z,98326.86
2017-08-25T01:53:49.222Z,98321.36
2017-08-25T01:56:17.596Z,98314.16
2017-08-25T01:58:45.990Z,98326.30
2017-08-25T02:01:14.383Z,98325.78
2017-08-25T02:03:42.783Z,98328.73
2017-08-25T02:06:11.191Z,98325.75
2017-08-25T02:08:39.570Z,98321.50
2017-08-25T02:11:07.960Z,98313.67
2017-08-25T02:13:36.377Z,98321.55
2017-08-25T02:16:04.759Z,98322.84
2017-08-25T02:18:33.171Z,98324.33
2017-08-25T02:21:01.556Z,98325.63
2017-08-25T02:23:29.938Z,98325.79
2017-08-25T02:25:58.355Z,98327.92
2017-08-25T02:28:26.757Z,98329.59
2017-08-25T02:30:55.137Z,98321.82
2017-08-25T02:33:23.543Z,98319.53
2017-08-25T02:35:51.964Z,98314.85
2017-08-25T02:38:20.371Z,98310.99
2017-08-25T02:40:48.766Z,98311.41
2017-08-25T02:43:17.152Z,98310.50
2017-08-25T02:45:45.559Z,98301.83
2017-08-25T02:48:13.955Z,98306.96
2017-08-25T02:50:42.354Z,98312.13
2017-08-25T02:53:10.744Z,98312.53
2017-08-25T02:55:39.144Z,98310.75
2017-08-25T02:58:07.555Z,98307.36
2017-08-25T03:00:35.945Z,98312.98
2017-08-25T03:03:04.341Z,98304.77
2017-08-25T03:05:32.706Z,98305.56
2017-08-25T03:08:01.092Z,98310.34
2017-08-25T03:10:29.483Z,98311.11
2017-08-25T03:12:57.859Z,98312.75
2017-08-25T03:15:26.224Z,98306.29
2017-08-25T03:17:54.619Z,98308.88
2017-08-25T03:20:22.986Z,98298.95
2017-08-25T03:22:51.350Z,98301.17
2017-08-25T03:25:19.745Z,98309.80
2017-08-25T03:27:48.110Z,98306.73
2017-08-25T03:30:16.531Z,98304.98
2017-08-25T03:32:44.894Z,98304.64
2017-08-25T03:35:13.262Z,98315.39
2017-08-25T03:37:41.663Z,98318.19
2017-08-25T03:40:10.033Z,98319.19
2017-08-25T03:42:38.431Z,98324.03
2017-08-25T03:45:06.826Z,98322.38
2017-08-25T03:47:35.234Z,98332.67
2017-08-25T03:50:03.629Z,98332.36
2017-08-25T03:52:32.019Z,98325.41
2017-08-25T03:55:00.426Z,98332.34
2017-08-25T03:57:28.817Z,98329.44
2017-08-25T03:59:57.214Z,98323.08
2017-08-25T04:02:25.600Z,98329.53
2017-08-25T04:04:53.990Z,98327.06
2017-08-25T04:07:22.376Z,98328.86
2017-08-25T04:09:50.763Z,98325.94
2017-08-25T04:12:19.192Z,98329.90
2017-08-25T04:14:47.570Z,98327.31
2017-08-25T04:17:15.947Z,98326.95
2017-08-25T04:19:44.345Z,98333.06
2017-08-25T04:22:12.729Z,98332.30
2017-08-25T04:24:41.115Z,98329.28
2017-08-25T04:27:09.519Z,98335.71
2017-08-25T04:29:37.904Z,98338.70
2017-08-25T04:32:06.317Z,98332.81
2017-08-25T04:34:34.756Z,98332.31
2017-08-25T04:37:03.128Z,98331.30
2017-08-25T04:39:31.529Z,98338.48
2017-08-25T04:41:59.925Z,98342.72
2017-08-25T04:44:28.308Z,98343.58
2017-08-25T04:46:56.703Z,98342.25
2017-08-25T04:49:25.071Z,98336.61
2017-08-25T04:51:53.467Z,98337.86
2017-08-25T04:54:21.852Z,98343.91
2017-08-25T04:56:50.237Z,98345.70
2017-08-25T04:59:18.637Z,98348.19
2017-08-25T05:01:47.023Z,98343.38
2017-08-25T05:04:15.405Z,98347.63
2017-08-25T05:06:43.823Z,98349.77
2017-08-25T05:09:12.211Z,98346.77
2017-08-25T05:11:40.610Z,98357.02
2017-08-25T05:14:08.982Z,98360.70
2017-08-25T05:16:37.361Z,98356.77
2017-08-25T05:19:05.736Z,98365.83
2017-08-25T05:21:34.100Z,98363.55
2017-08-25T05:24:02.541Z,98363.84
2017-08-25T05:26:32.222Z,98360.66
2017-08-25T05:29:00.637Z,98365.02
2017-08-25T05:31:29.018Z,98367.50
2017-08-25T05:33:57.407Z,98364.41
2017-08-25T05:36:25.801Z,98364.36
2017-08-25T05:38:54.207Z,98364.30
2017-08-25T05:41:22.597Z,98369.19
2017-08-25T05:43:51.002Z,98369.17
2017-08-25T05:46:19.389Z,98365.53
2017-08-25T05:48:47.756Z,98363.54
2017-08-25T05:51:16.160Z,98358.28
2017-08-25T05:53:44.560Z,98360.96
2017-08-25T05:56:12.925Z,98363.27
2017-08-25T05:58:41.339Z,98364.27
2017-08-25T06:01:09.737Z,98366.09
2017-08-25T06:03:38.131Z,98364.36
2017-08-25T06:06:06.511Z,98362.20
2017-08-25T06:08:34.901Z,98361.90
2017-08-25T06:11:03.305Z,98356.52
2017-08-25T06:13:31.688Z,98358.84
2017-08-25T06:16:00.127Z,98360.18
2017-08-25T06:18:28.506Z,98351.86
2017-08-25T06:20:56.941Z,98350.19
2017-08-25T06:23:25.369Z,98353.25
2017-08-25T06:25:53.817Z,98349.56
2017-08-25T06:28:22.200Z,98358.67
2017-08-25T06:30:50.579Z,98356.36
2017-08-25T06:33:18.976Z,98358.10
2017-08-25T06:35:47.345Z,98364.34
2017-08-25T06:38:15.749Z,98360.46
2017-08-25T06:40:44.128Z,98362.58
2017-08-25T06:43:12.495Z,98359.30
2017-08-25T06:45:40.912Z,98351.60
2017-08-25T06:48:09.300Z,98350.83
2017-08-25T06:50:37.675Z,98342.34
2017-08-25T06:53:06.070Z,98344.12
2017-08-25T06:55:34.461Z,98350.19
2017-08-25T06:58:02.852Z,98353.53
2017-08-25T07:00:31.222Z,98372.11
2017-08-25T07:02:59.633Z,98368.16
2017-08-25T07:05:28.027Z,98369.89
2017-08-25T07:07:56.394Z,98357.44
2017-08-25T07:10:24.789Z,98356.77
2017-08-25T07:12:53.203Z,98357.06
2017-08-25T07:15:22.188Z,98357.34
2017-08-25T07:17:50.578Z,98348.16
2017-08-25T07:20:18.983Z,98345.52
2017-08-25T07:22:47.364Z,98350.89
2017-08-25T07:25:15.734Z,98352.38
2017-08-25T07:27:44.160Z,98347.45
2017-08-25T07:30:12.542Z,98349.95
2017-08-25T07:32:40.913Z,98352.91
2017-08-25T07:35:09.327Z,98352.61
2017-08-25T07:37:37.693Z,98363.49
2017-08-25T07:40:06.085Z,98366.52
2017-08-25T07:42:34.515Z,98370.20
2017-08-25T07:45:02.900Z,98379.36
2017-08-25T07:47:31.276Z,98385.76
2017-08-25T07:49:59.716Z,98386.80
2017-08-25T07:52:28.089Z,98382.30
2017-08-25T07:54:56.499Z,98377.00
2017-08-25T07:57:24.873Z,98382.97
2017-08-25T07:59:53.238Z,98384.12
2017-08-25T08:02:21.632Z,98393.36
2017-08-25T08:04:50.002Z,98388.90
2017-08-25T08:07:18.397Z,98388.74
2017-08-25T08:09:46.801Z,98388.19
2017-08-25T08:12:15.165Z,98385.61
2017-08-25T08:14:43.535Z,98386.81
2017-08-25T08:17:11.921Z,98377.37
2017-08-25T08:19:40.303Z,98375.23
2017-08-25T08:22:08.709Z,98370.92
2017-08-25T08:24:37.077Z,98374.23
2017-08-25T08:27:05.481Z,98372.95
2017-08-25T08:29:33.845Z,98379.38
2017-08-25T08:32:02.238Z,98384.34
2017-08-25T08:34:30.640Z,98378.42
2017-08-25T08:36:59.015Z,98377.28
2017-08-25T08:39:27.403Z,98376.23
2017-08-25T08:41:56.711Z,98374.73
2017-08-25T08:44:25.083Z,98374.23
2017-08-25T08:46:53.451Z,98372.52
2017-08-25T08:49:21.849Z,98372.36
2017-08-25T08:51:50.217Z,98378.52
2017-08-25T08:54:18.589Z,98373.36
2017-08-25T08:56:46.996Z,98369.97
2017-08-25T08:59:15.366Z,98370.37
2017-08-25T09:01:43.772Z,98366.18
2017-08-25T09:04:12.176Z,98363.78
2017-08-25T09:06:40.559Z,98365.05
2017-08-25T09:09:08.967Z,98367.67
2017-08-25T09:11:37.347Z,98367.45
2017-08-25T09:14:05.731Z,98359.67
2017-08-25T09:16:34.143Z,98361.20
2017-08-25T09:19:02.522Z,98355.16
2017-08-25T09:21:30.925Z,98365.03
2017-08-25T09:23:59.291Z,98358.42
2017-08-25T09:26:27.665Z,98368.20
2017-08-25T09:28:56.061Z,98364.55
2017-08-25T09:31:24.421Z,98362.67
2017-08-25T09:33:52.792Z,98356.20
2017-08-25T09:36:21.192Z,98360.28
2017-08-25T09:38:49.583Z,98361.75
2017-08-25T09:41:17.949Z,98361.22
2017-08-25T09:43:46.356Z,98354.28
2017-08-25T09:46:14.731Z,98353.49
2017-08-25T09:48:43.107Z,98350.74
2017-08-25T09:51:11.508Z,98351.00
2017-08-25T09:53:39.905Z,98343.39
2017-08-25T09:56:08.308Z,98353.41
2017-08-25T09:58:36.733Z,98347.20
2017-08-25T10:01:05.112Z,98348.00
2017-08-25T10:03:33.525Z,98350.99
2017-08-25T10:06:01.906Z,98348.49
2017-08-25T10:08:30.286Z,98348.70
2017-08-25T10:10:58.691Z,98345.73
2017-08-25T10:13:27.083Z,98342.90
2017-08-25T10:15:55.484Z,98349.37
2017-08-25T10:18:23.929Z,98343.83
2017-08-25T10:20:53.211Z,98343.37
2017-08-25T10:23:21.581Z,98338.56
2017-08-25T10:25:49.990Z,98332.18
2017-08-25T10:28:18.361Z,98342.08
2017-08-25T10:30:46.738Z,98336.46
2017-08-25T10:33:32.918Z,98328.69
2017-08-25T10:49:51.807Z,98313.51
2017-08-25T10:52:20.213Z,98314.56
2017-08-25T10:54:48.601Z,98317.20
2017-08-25T10:57:17.002Z,98314.60
2017-08-25T10:59:45.367Z,98309.80
2017-08-25T11:02:13.770Z,98305.34
2017-08-25T11:04:42.151Z,98304.47
2017-08-25T11:07:10.535Z,98300.05
2017-08-25T11:09:38.928Z,98296.25
2017-08-25T11:12:07.293Z,98288.66
2017-08-25T11:14:35.668Z,98288.78
2017-08-25T11:17:04.054Z,98291.71
2017-08-25T11:19:32.425Z,98294.81
2017-08-25T11:22:00.788Z,98296.31
2017-08-25T11:24:29.184Z,98297.64
2017-08-25T11:26:57.544Z,98293.47
2017-08-25T11:29:25.921Z,98298.26
2017-08-25T11:31:54.344Z,98300.66
2017-08-25T11:34:22.719Z,98300.93
2017-08-25T11:36:51.098Z,98305.62
2017-08-25T11:39:19.497Z,98284.74
2017-08-25T11:41:47.856Z,98308.96
2017-08-25T11:44:16.226Z,98303.48
2017-08-25T11:46:44.618Z,98299.83
2017-08-25T11:49:13.012Z,98297.16
2017-08-25T11:51:41.386Z,98291.72
2017-08-25T11:54:09.786Z,98286.29
2017-08-25T11:56:38.908Z,98289.79
2017-08-25T11:59:07.334Z,98281.95
2017-08-25T12:01:35.712Z,98287.22
2017-08-25T12:04:04.105Z,98282.50
2017-08-25T12:06:32.472Z,98281.17
2017-08-25T12:09:00.853Z,98278.62
2017-08-25T12:11:29.272Z,98278.16
2017-08-25T12:13:57.664Z,98273.86
2017-08-25T12:16:26.034Z,98277.77
2017-08-25T12:18:54.444Z,98275.36
2017-08-25T12:21:22.819Z,98270.97
2017-08-25T12:23:51.214Z,98279.18
2017-08-25T12:26:19.582Z,98268.20
2017-08-25T12:28:47.957Z,98272.80
2017-08-25T12:31:16.357Z,98268.31
2017-08-25T12:33:44.859Z,98265.73
2017-08-25T12:36:13.234Z,98269.72
2017-08-25T12:38:41.624Z,98266.66
2017-08-25T12:41:10.000Z,98272.81
2017-08-25T12:43:38.365Z,98263.95
2017-08-25T12:46:06.779Z,98261.44
2017-08-25T12:48:35.163Z,98269.86
2017-08-25T12:51:03.524Z,98273.38
2017-08-25T12:53:31.931Z,98269.52
2017-08-25T12:56:00.295Z,98279.59
2017-08-25T12:58:28.663Z,98274.20
2017-08-25T13:00:57.063Z,98277.38
2017-08-25T13:03:25.438Z,98276.82
2017-08-25T13:05:53.800Z,98279.27
2017-08-25T13:08:22.219Z,98278.17
2017-08-25T13:10:50.607Z,98276.88
2017-08-25T13:13:18.983Z,98275.97
2017-08-25T13:15:47.383Z,98278.28
2017-08-25T13:18:15.745Z,98276.89
2017-08-25T13:20:44.876Z,98269.20
2017-08-25T13:23:13.279Z,98267.72
2017-08-25T13:25:41.649Z,98261.37
2017-08-25T13:28:10.026Z,98258.58
2017-08-25T13:30:38.417Z,98260.67
2017-08-25T13:33:06.804Z,98259.54
2017-08-25T13:35:35.184Z,98258.00
2017-08-25T13:38:03.570Z,98253.00
2017-08-25T13:40:31.931Z,98253.70
2017-08-25T13:43:00.292Z,98250.55
2017-08-25T13:45:28.703Z,98251.38
2017-08-25T13:47:57.079Z,98240.66
2017-08-25T13:50:25.486Z,98237.51
2017-08-25T13:52:53.848Z,98234.49
2017-08-25T13:55:22.224Z,98236.49
2017-08-25T13:57:50.618Z,98229.97
2017-08-25T14:00:18.992Z,98225.11
2017-08-25T14:02:47.355Z,98228.17
2017-08-25T14:05:15.767Z,98224.55
2017-08-25T14:07:44.133Z,98225.68
2017-08-25T14:10:12.500Z,98225.89
2017-08-25T14:12:40.898Z,98221.56
2017-08-25T14:15:09.261Z,98220.86
2017-08-25T14:17:37.630Z,98216.05
2017-08-25T14:20:06.024Z,98219.55
2017-08-25T14:22:34.380Z,98224.41
2017-08-25T14:25:02.763Z,98220.81
2017-08-25T14:27:31.166Z,98216.80
2017-08-25T14:29:59.525Z,98222.02
2017-08-25T14:32:27.887Z,98221.13
2017-08-25T14:34:56.290Z,98222.71
2017-08-25T14:37:24.670Z,98215.53
2017-08-25T14:39:53.044Z,98212.75
2017-08-25T14:42:21.439Z,98211.87
2017-08-25T14:44:49.797Z,98200.12
2017-08-25T14:47:18.192Z,98200.53
2017-08-25T14:49:46.594Z,98193.52
2017-08-25T14:52:14.953Z,98190.72
2017-08-25T14:54:43.319Z,98186.09
2017-08-25T14:57:11.696Z,98182.09
2017-08-25T14:59:40.077Z,98178.40
2017-08-25T15:02:08.446Z,98180.44
2017-08-25T15:04:36.846Z,98179.36
2017-08-25T15:07:05.655Z,98179.34
2017-08-25T15:09:34.022Z,98182.67
2017-08-25T15:12:02.424Z,98180.55
2017-08-25T15:14:30.800Z,98184.06
2017-08-25T15:16:59.172Z,98183.23
2017-08-25T15:19:27.580Z,98181.92
2017-08-25T15:21:55.937Z,98183.31
2017-08-25T15:24:24.311Z,98175.55
2017-08-25T15:26:52.722Z,98165.25
2017-08-25T15:29:21.112Z,98168.47
2017-08-25T15:31:49.473Z,98173.82
2017-08-25T15:34:17.864Z,98173.61
2017-08-25T15:36:46.241Z,98169.83
2017-08-25T15:39:14.601Z,98166.96
2017-08-25T15:41:43.002Z,98162.00
2017-08-25T15:44:11.380Z,98165.80
2017-08-25T15:46:39.745Z,98160.41
2017-08-25T15:49:08.133Z,98153.73
2017-08-25T15:51:36.499Z,98153.30
2017-08-25T15:54:04.876Z,98150.06
2017-08-25T15:56:33.262Z,98139.70
2017-08-25T15:59:01.639Z,98141.95
2017-08-25T16:01:30.001Z,98146.41
2017-08-25T16:03:58.391Z,98148.58
2017-08-25T16:06:26.759Z,98150.40
2017-08-25T16:08:55.118Z,98146.81
2017-08-25T16:11:23.505Z,98147.71
2017-08-25T16:13:51.881Z,98154.92
2017-08-25T16:16:20.250Z,98151.48
2017-08-25T16:18:48.670Z,98149.37
2017-08-25T16:21:17.031Z,98158.05
2017-08-25T16:23:45.395Z,98162.05
2017-08-25T16:26:13.788Z,98154.64
2017-08-25T16:28:42.158Z,98145.97
2017-08-25T16:31:10.525Z,98138.45
2017-08-25T16:33:38.927Z,98133.95
2017-08-25T16:36:07.295Z,98130.30
2017-08-25T16:38:35.669Z,98138.66
2017-08-25T16:41:04.062Z,98143.77
2017-08-25T16:43:32.431Z,98147.05
2017-08-25T16:46:00.819Z,98145.78
2017-08-25T16:48:29.228Z,98146.70
2017-08-25T16:50:57.616Z,98149.11
2017-08-25T16:53:26.009Z,98138.59
2017-08-25T16:55:54.411Z,98142.03
2017-08-25T16:58:22.781Z,98149.58
2017-08-25T17:00:51.150Z,98143.83
2017-08-25T17:03:19.551Z,98138.45
2017-08-25T17:05:47.927Z,98131.70
2017-08-25T17:08:16.305Z,98132.23
2017-08-25T17:10:44.703Z,98127.16
2017-08-25T17:13:13.080Z,98135.31
2017-08-25T17:15:41.450Z,98142.97
2017-08-25T17:18:09.856Z,98148.37
2017-08-25T17:20:38.222Z,98144.28
2017-08-25T17:23:06.598Z,98143.50
2017-08-25T17:25:35.005Z,98137.64
2017-08-25T17:28:03.365Z,98131.60
2017-08-25T17:30:31.741Z,98136.84
2017-08-25T17:33:00.135Z,98138.28
2017-08-25T17:35:28.514Z,98141.87
2017-08-25T17:37:56.883Z,98148.91
2017-08-25T17:40:25.273Z,98146.53
2017-08-25T17:42:53.654Z,98152.62
2017-08-25T17:45:22.042Z,98158.88
2017-08-25T17:47:50.437Z,98156.87
2017-08-25T17:50:18.809Z,98160.34
2017-08-25T17:52:47.187Z,98153.45
2017-08-25T17:55:15.573Z,98159.31
2017-08-25T17:57:43.940Z,98152.91
2017-08-25T18:00:12.289Z,98156.91
2017-08-25T18:02:40.702Z,98151.75
2017-08-25T18:05:09.092Z,98156.22
2017-08-25T18:07:37.452Z,98150.02
2017-08-25T18:10:05.853Z,98146.48
2017-08-25T18:12:34.227Z,98133.87
2017-08-25T18:15:02.599Z,98129.98
2017-08-25T18:17:31.002Z,98126.34
2017-08-25T18:19:59.360Z,98125.34
2017-08-25T18:22:27.735Z,98124.47
2017-08-25T18:24:56.129Z,98122.99
2017-08-25T18:27:24.499Z,98124.22
2017-08-25T18:29:52.883Z,98138.09
2017-08-25T18:32:21.290Z,98139.41
2017-08-25T18:34:49.657Z,98136.16
2017-08-25T18:37:18.032Z,98146.25
2017-08-25T18:39:46.423Z,98158.36
2017-08-25T18:42:14.790Z,98168.95
2017-08-25T18:44:43.158Z,98174.28
2017-08-25T18:47:11.582Z,98174.97
2017-08-25T18:49:39.956Z,98181.51
2017-08-25T18:52:08.321Z,98183.20
2017-08-25T18:54:36.740Z,98175.56
2017-08-25T18:57:05.116Z,98178.74
2017-08-25T18:59:33.504Z,98177.91
2017-08-25T19:02:01.907Z,98177.06
2017-08-25T19:04:30.282Z,98186.22
2017-08-25T19:06:58.656Z,98192.85
2017-08-25T19:09:27.057Z,98192.42
2017-08-25T19:11:55.431Z,98185.05
2017-08-25T19:14:23.793Z,98187.19
2017-08-25T19:16:52.185Z,98180.88
2017-08-25T19:19:20.545Z,98179.27
2017-08-25T19:21:48.904Z,98181.56
2017-08-25T19:24:17.289Z,98185.47
2017-08-25T19:26:45.645Z,98184.16
2017-08-25T19:29:14.002Z,98187.23
2017-08-25T19:31:42.400Z,98188.14
2017-08-25T19:34:10.767Z,98183.19
2017-08-25T19:36:39.127Z,98176.19
2017-08-25T19:39:07.539Z,98178.45
2017-08-25T19:41:35.911Z,98177.14
2017-08-25T19:44:04.290Z,98182.25
2017-08-25T19:46:32.713Z,98183.20
2017-08-25T19:49:01.072Z,98182.70
2017-08-25T19:51:29.425Z,98178.23
2017-08-25T19:53:57.831Z,98169.84
2017-08-25T19:56:26.213Z,98173.38
2017-08-25T19:58:54.621Z,98179.52
2017-08-25T20:01:23.030Z,98185.72
2017-08-25T20:03:51.392Z,98180.64
2017-08-25T20:06:19.766Z,98179.39
2017-08-25T20:08:48.165Z,98179.90
2017-08-25T20:11:16.526Z,98171.33
2017-08-25T20:13:44.906Z,98175.56
2017-08-25T20:16:13.301Z,98166.95
2017-08-25T20:18:41.665Z,98172.97
2017-08-25T20:21:10.036Z,98178.21
2017-08-25T20:23:38.440Z,98184.19
2017-08-25T20:26:06.820Z,98186.94
2017-08-25T20:28:35.183Z,98183.95
2017-08-25T20:31:03.613Z,98190.19
2017-08-25T20:33:31.977Z,98195.36
2017-08-25T20:36:00.341Z,98199.55
2017-08-25T20:38:28.744Z,98198.05
2017-08-25T20:40:57.108Z,98187.48
2017-08-25T20:43:25.504Z,98193.22
2017-08-25T20:45:53.901Z,98197.44
2017-08-25T20:48:22.261Z,98192.45
2017-08-25T20:50:50.624Z,98196.36
2017-08-25T20:53:19.032Z,98202.28
2017-08-25T20:55:47.409Z,98200.98
2017-08-25T20:58:15.913Z,98202.37
2017-08-25T21:00:44.352Z,98203.73
2017-08-25T21:03:12.734Z,98192.42
2017-08-25T21:05:41.117Z,98198.62
2017-08-25T21:08:09.541Z,98186.86
2017-08-25T21:10:37.904Z,98186.95
2017-08-25T21:13:06.291Z,98190.71
2017-08-25T21:15:34.693Z,98197.14
2017-08-25T21:18:03.086Z,98198.55
2017-08-25T21:20:31.454Z,98190.73
2017-08-25T21:22:59.855Z,98192.38
2017-08-25T21:25:28.251Z,98185.61
2017-08-25T21:27:56.653Z,98187.88
2017-08-25T21:30:25.036Z,98182.30
2017-08-25T21:32:53.415Z,98174.31
2017-08-25T21:35:21.813Z,98173.14
2017-08-25T21:37:50.187Z,98167.05
2017-08-25T21:40:18.565Z,98161.05
2017-08-25T21:42:47.305Z,98164.63
2017-08-25T21:45:15.687Z,98169.23
2017-08-25T21:47:44.076Z,98169.19
2017-08-25T21:50:12.481Z,98172.09
2017-08-25T21:52:40.846Z,98164.08
2017-08-25T21:55:09.231Z,98156.90
2017-08-25T21:57:37.609Z,98154.77
2017-08-25T22:00:06.064Z,98152.91
2017-08-25T22:02:34.469Z,98156.78
2017-08-25T22:05:02.843Z,98152.61
2017-08-25T22:07:31.205Z,98151.73
2017-08-25T22:09:59.607Z,98158.45
2017-08-25T22:12:27.969Z,98155.64
2017-08-25T22:14:56.333Z,98150.73
2017-08-25T22:17:24.725Z,98146.06
2017-08-25T22:19:53.085Z,98146.40
2017-08-25T22:22:21.486Z,98137.38
2017-08-25T22:24:49.855Z,98137.62
2017-08-25T22:27:18.226Z,98138.97
2017-08-25T22:29:46.621Z,98143.84
2017-08-25T22:32:14.999Z,98145.69
2017-08-25T22:34:43.391Z,98140.27
2017-08-25T22:37:11.757Z,98140.13
2017-08-25T22:39:40.145Z,98144.54
2017-08-25T22:42:08.506Z,98146.70
2017-08-25T22:44:36.901Z,98144.18
2017-08-25T22:47:05.266Z,98136.84
2017-08-25T22:49:33.719Z,98143.70
2017-08-25T22:52:02.123Z,98148.67
2017-08-25T22:54:30.507Z,98149.50
2017-08-25T22:56:58.869Z,98152.61
2017-08-25T22:59:27.253Z,98146.97
2017-08-25T23:01:55.662Z,98143.36
2017-08-25T23:04:24.024Z,98138.73
2017-08-25T23:06:52.396Z,98147.11
2017-08-25T23:09:20.801Z,98157.00
2017-08-25T23:11:49.208Z,98176.56
2017-08-25T23:14:17.581Z,98201.44
2017-08-25T23:16:45.988Z,98177.58
2017-08-25T23:19:14.345Z,98150.59
2017-08-25T23:21:42.742Z,98161.99
2017-08-25T23:24:11.118Z,98139.34
2017-08-25T23:26:39.512Z,98134.67
2017-08-25T23:29:07.907Z,98130.06
2017-08-25T23:31:36.313Z,98132.78
2017-08-25T23:34:04.938Z,98128.20
2017-08-25T23:36:33.593Z,98116.27
2017-08-25T23:39:02.113Z,98105.84
2017-08-25T23:41:30.634Z,98109.50
2017-08-25T23:43:59.160Z,98128.46
2017-08-25T23:46:27.691Z,98135.13
2017-08-25T23:48:56.239Z,98128.70
2017-08-25T23:51:24.858Z,98122.31
2017-08-25T23:53:53.284Z,98140.66
2017-08-25T23:56:21.983Z,98148.27
2017-08-25T23:58:50.554Z,98158.91
